Time;durP1;ratioP1;P1;durP2;ratioP2;P2;SDS_P1;SDS_P2;PMS_P1;PMS_P2;Temp;Humidity;BMP_temperature;BMP_pressure;BME280_temperature;BME280_humidity;BME280_pressure;Samples;Min_cycle;Max_cycle;Signal;HPM_P1;HPM_P2
2022/03/20 00:00:46;;;;;;;27.27;23.40;;;;;;;;;;5011585;28;20294;-76
2022/03/20 00:03:14;;;;;;;25.70;22.37;;;;;;;;;;5007347;28;20211;-76
2022/03/20 00:05:42;;;;;;;26.53;21.87;;;;;;;;;;5010793;28;20232;-76
2022/03/20 00:08:11;;;;;;;26.40;22.17;;;;;;;;;;5011857;28;20252;-76
2022/03/20 00:10:38;;;;;;;28.53;23.40;;;;;;;;;;5013134;28;20210;-76
2022/03/20 00:13:07;;;;;;;26.63;22.47;;;;;;;;;;5011493;28;20213;-76
2022/03/20 00:15:35;;;;;;;26.30;22.67;;;;;;;;;;5012753;28;20206;-76
2022/03/20 00:18:06;;;;;;;27.80;22.63;;;;;;;;;;5010929;28;20242;-77
2022/03/20 00:20:35;;;;;;;26.60;21.87;;;;;;;;;;5013089;28;20210;-76
2022/03/20 00:23:04;;;;;;;26.93;22.10;;;;;;;;;;5006571;28;20242;-76
2022/03/20 00:25:31;;;;;;;26.13;21.40;;;;;;;;;;5011786;28;20230;-76
2022/03/20 00:27:59;;;;;;;24.77;20.87;;;;;;;;;;5007324;28;20310;-75
2022/03/20 00:30:26;;;;;;;25.10;20.53;;;;;;;;;;5012112;28;20198;-76
2022/03/20 00:32:53;;;;;;;26.47;21.33;;;;;;;;;;5011704;28;20576;-76
2022/03/20 00:35:22;;;;;;;24.90;20.57;;;;;;;;;;5012840;28;20289;-76
2022/03/20 00:37:49;;;;;;;25.57;20.70;;;;;;;;;;5008335;28;20325;-76
2022/03/20 00:40:16;;;;;;;27.13;22.13;;;;;;;;;;5009443;28;20210;-76
2022/03/20 00:42:43;;;;;;;25.90;21.83;;;;;;;;;;5005489;28;20203;-76
2022/03/20 00:45:11;;;;;;;27.30;21.87;;;;;;;;;;5010797;28;20775;-76
2022/03/20 00:52:44;;;;;;;25.20;21.00;;;;;;;;;;5049883;28;20213;-76
2022/03/20 00:55:11;;;;;;;25.50;20.67;;;;;;;;;;5051790;28;20201;-75
2022/03/20 00:57:38;;;;;;;24.50;20.10;;;;;;;;;;5038640;28;20239;-76
2022/03/20 01:00:06;;;;;;;24.40;20.70;;;;;;;;;;5031989;28;20200;-77
2022/03/20 01:02:37;;;;;;;25.33;20.20;;;;;;;;;;5031169;28;20280;-75
2022/03/20 01:05:05;;;;;;;24.03;20.30;;;;;;;;;;5031645;28;20218;-75
2022/03/20 01:07:32;;;;;;;25.57;21.53;;;;;;;;;;5030963;28;20309;-74
2022/03/20 01:10:01;;;;;;;26.80;21.43;;;;;;;;;;5029782;28;20198;-75
2022/03/20 01:12:28;;;;;;;27.87;21.93;;;;;;;;;;5035146;28;20281;-74
2022/03/20 01:14:56;;;;;;;25.77;22.07;;;;;;;;;;5036347;28;20202;-74
2022/03/20 01:17:23;;;;;;;24.87;21.60;;;;;;;;;;5033187;28;20726;-74
2022/03/20 01:19:50;;;;;;;27.30;21.97;;;;;;;;;;5035710;28;20206;-75
2022/03/20 01:22:18;;;;;;;26.43;21.13;;;;;;;;;;5062387;28;20205;-74
2022/03/20 01:24:46;;;;;;;26.47;21.30;;;;;;;;;;5057106;28;20228;-74
2022/03/20 01:27:15;;;;;;;25.33;20.77;;;;;;;;;;5045107;28;20279;-74
2022/03/20 01:29:42;;;;;;;25.77;21.63;;;;;;;;;;5049112;28;20206;-74
2022/03/20 01:32:10;;;;;;;25.33;21.67;;;;;;;;;;5051510;28;20265;-74
2022/03/20 01:34:37;;;;;;;26.57;21.03;;;;;;;;;;5058123;28;20194;-74
2022/03/20 01:37:05;;;;;;;28.33;21.77;;;;;;;;;;5078806;22;20536;-75
2022/03/20 01:39:33;;;;;;;25.47;20.33;;;;;;;;;;5029313;28;20208;-75
2022/03/20 01:42:00;;;;;;;26.77;21.03;;;;;;;;;;5039939;28;20213;-74
2022/03/20 01:44:32;;;;;;;27.77;22.27;;;;;;;;;;5047374;28;20247;-75
2022/03/20 01:47:00;;;;;;;26.03;21.97;;;;;;;;;;5039565;28;20273;-74
2022/03/20 01:49:27;;;;;;;26.23;21.67;;;;;;;;;;5019891;28;20199;-74
2022/03/20 01:52:13;;;;;;;28.67;22.13;;;;;;;;;;5016806;28;20226;-75
2022/03/20 01:54:41;;;;;;;27.93;22.70;;;;;;;;;;5021185;28;20203;-75
2022/03/20 01:57:09;;;;;;;29.57;21.97;;;;;;;;;;5023019;28;20234;-74
2022/03/20 01:59:38;;;;;;;28.47;23.00;;;;;;;;;;5017558;28;20206;-75
2022/03/20 02:02:05;;;;;;;28.73;22.27;;;;;;;;;;5017153;28;20310;-74
2022/03/20 02:04:33;;;;;;;27.43;22.17;;;;;;;;;;5025129;28;20221;-75
2022/03/20 02:07:02;;;;;;;29.80;22.93;;;;;;;;;;5015730;28;20227;-75
2022/03/20 02:09:29;;;;;;;27.87;22.37;;;;;;;;;;5015993;28;20206;-74
2022/03/20 02:11:56;;;;;;;27.67;22.30;;;;;;;;;;5016682;28;20257;-75
2022/03/20 02:14:24;;;;;;;30.17;24.03;;;;;;;;;;5022304;28;20229;-75
2022/03/20 02:16:53;;;;;;;28.47;23.10;;;;;;;;;;5028231;28;20206;-75
2022/03/20 02:19:20;;;;;;;27.67;22.53;;;;;;;;;;5028961;28;20205;-75
2022/03/20 02:21:50;;;;;;;25.80;22.00;;;;;;;;;;5019081;28;20297;-75
2022/03/20 02:24:29;;;;;;;26.80;22.10;;;;;;;;;;5015459;28;20221;-75
2022/03/20 02:27:03;;;;;;;27.90;22.77;;;;;;;;;;5015153;28;20257;-75
2022/03/20 02:29:30;;;;;;;25.43;21.63;;;;;;;;;;5024382;28;20210;-74
2022/03/20 02:31:57;;;;;;;26.73;22.33;;;;;;;;;;5034531;28;20232;-74
2022/03/20 02:34:24;;;;;;;26.53;22.00;;;;;;;;;;5027250;28;20221;-75
2022/03/20 02:36:53;;;;;;;24.83;21.00;;;;;;;;;;5017844;28;20210;-74
2022/03/20 02:39:20;;;;;;;27.63;21.53;;;;;;;;;;5023682;28;20226;-75
2022/03/20 02:41:49;;;;;;;26.57;21.93;;;;;;;;;;5030375;28;20198;-75
2022/03/20 02:44:17;;;;;;;24.97;22.27;;;;;;;;;;5017489;28;20207;-75
2022/03/20 02:46:44;;;;;;;23.63;21.03;;;;;;;;;;5031237;28;20206;-74
2022/03/20 02:49:13;;;;;;;24.77;21.07;;;;;;;;;;5029701;28;20293;-75
2022/03/20 02:51:40;;;;;;;28.07;21.03;;;;;;;;;;5032227;28;20289;-75
2022/03/20 02:54:10;;;;;;;27.20;21.80;;;;;;;;;;5014875;28;20206;-75
2022/03/20 02:56:37;;;;;;;26.30;21.13;;;;;;;;;;5016699;28;20207;-73
2022/03/20 02:59:05;;;;;;;25.63;21.87;;;;;;;;;;5014938;28;20206;-74
2022/03/20 03:01:32;;;;;;;27.03;22.77;;;;;;;;;;5023943;28;20233;-75
2022/03/20 03:04:00;;;;;;;26.73;20.90;;;;;;;;;;5023911;28;20256;-74
2022/03/20 03:06:27;;;;;;;26.13;21.77;;;;;;;;;;5021894;28;20222;-74
2022/03/20 03:11:40;;;;;;;24.93;20.37;;;;;;;;;;5015126;28;20697;-75
2022/03/20 03:16:49;;;;;;;26.03;20.77;;;;;;;;;;5025501;28;20217;-74
2022/03/20 03:19:16;;;;;;;24.43;21.13;;;;;;;;;;5033821;28;20206;-75
2022/03/20 03:21:44;;;;;;;26.57;21.53;;;;;;;;;;5028184;28;20206;-74
2022/03/20 03:24:11;;;;;;;23.47;20.50;;;;;;;;;;5028186;28;20744;-75
2022/03/20 03:26:38;;;;;;;26.90;20.40;;;;;;;;;;5018880;28;20222;-74
2022/03/20 03:29:07;;;;;;;22.63;19.50;;;;;;;;;;5032755;28;20220;-75
2022/03/20 03:31:35;;;;;;;24.53;19.97;;;;;;;;;;5024066;28;20260;-74
2022/03/20 03:36:47;;;;;;;23.90;19.27;;;;;;;;;;5013830;28;20213;-74
2022/03/20 03:39:14;;;;;;;25.57;20.17;;;;;;;;;;5032959;28;20269;-74
2022/03/20 03:41:41;;;;;;;24.10;19.23;;;;;;;;;;5033988;28;20209;-74
2022/03/20 03:44:10;;;;;;;21.30;18.53;;;;;;;;;;5024210;28;20259;-74
2022/03/20 03:46:39;;;;;;;24.73;19.07;;;;;;;;;;5017491;28;20258;-74
2022/03/20 03:49:06;;;;;;;21.77;18.50;;;;;;;;;;5018263;28;20221;-75
2022/03/20 03:51:33;;;;;;;23.53;20.37;;;;;;;;;;5016732;28;20207;-75
2022/03/20 03:54:00;;;;;;;23.80;19.90;;;;;;;;;;5023623;28;20337;-74
2022/03/20 03:56:28;;;;;;;24.00;20.23;;;;;;;;;;5016961;28;20672;-75
2022/03/20 03:58:56;;;;;;;24.70;20.57;;;;;;;;;;5013414;28;20319;-74
2022/03/20 04:01:25;;;;;;;25.17;19.93;;;;;;;;;;5012963;28;20206;-74
2022/03/20 04:03:52;;;;;;;21.90;18.73;;;;;;;;;;5025477;28;20271;-75
2022/03/20 04:06:20;;;;;;;24.17;20.03;;;;;;;;;;5031611;28;20312;-75
2022/03/20 04:08:47;;;;;;;24.10;19.20;;;;;;;;;;5026405;28;20225;-75
2022/03/20 04:11:15;;;;;;;22.00;18.70;;;;;;;;;;5006338;28;20210;-74
2022/03/20 04:13:42;;;;;;;21.80;19.50;;;;;;;;;;5021904;28;20233;-75
2022/03/20 04:16:09;;;;;;;22.37;19.10;;;;;;;;;;5031462;28;20240;-74
2022/03/20 04:18:38;;;;;;;22.10;18.80;;;;;;;;;;5015688;28;20333;-74
2022/03/20 04:21:05;;;;;;;21.73;18.67;;;;;;;;;;5031868;28;20248;-75
2022/03/20 04:23:48;;;;;;;21.57;17.73;;;;;;;;;;5017337;28;20233;-74
2022/03/20 04:26:17;;;;;;;20.50;17.30;;;;;;;;;;5013935;28;20257;-74
2022/03/20 04:28:46;;;;;;;21.27;17.03;;;;;;;;;;5012846;28;20230;-74
2022/03/20 04:31:15;;;;;;;20.03;16.27;;;;;;;;;;5013988;28;20202;-74
2022/03/20 04:33:44;;;;;;;20.47;15.97;;;;;;;;;;5024025;28;20201;-75
2022/03/20 04:36:11;;;;;;;21.40;17.30;;;;;;;;;;5012586;28;20222;-75
2022/03/20 04:38:39;;;;;;;18.80;16.47;;;;;;;;;;5011901;28;20234;-75
2022/03/20 04:41:06;;;;;;;18.70;16.70;;;;;;;;;;5012812;28;20217;-75
2022/03/20 04:43:34;;;;;;;20.80;16.67;;;;;;;;;;5013647;28;20316;-75
2022/03/20 04:46:01;;;;;;;19.73;17.17;;;;;;;;;;5016943;28;20222;-75
2022/03/20 04:59:28;;;;;;;22.00;18.07;;;;;;;;;;5035927;28;20201;-74
2022/03/20 05:01:55;;;;;;;20.03;16.20;;;;;;;;;;5023048;28;20214;-74
2022/03/20 05:04:23;;;;;;;24.23;18.20;;;;;;;;;;5017002;28;20295;-75
2022/03/20 05:06:52;;;;;;;23.43;17.77;;;;;;;;;;5020485;28;20230;-75
2022/03/20 05:14:57;;;;;;;20.67;16.80;;;;;;;;;;5027334;28;20209;-74
2022/03/20 05:17:25;;;;;;;20.90;16.93;;;;;;;;;;5028408;28;20224;-75
2022/03/20 05:19:52;;;;;;;21.70;16.80;;;;;;;;;;5028413;28;20293;-74
2022/03/20 05:22:21;;;;;;;21.37;17.47;;;;;;;;;;5024556;28;20288;-75
2022/03/20 05:24:48;;;;;;;21.27;17.87;;;;;;;;;;5025960;28;20210;-74
2022/03/20 05:27:15;;;;;;;22.57;17.93;;;;;;;;;;5014992;28;20336;-75
2022/03/20 05:29:43;;;;;;;21.47;17.67;;;;;;;;;;5023659;28;20289;-76
2022/03/20 05:32:10;;;;;;;22.17;17.70;;;;;;;;;;5034729;28;20210;-76
2022/03/20 05:34:38;;;;;;;21.70;17.60;;;;;;;;;;5028628;28;20290;-73
2022/03/20 05:37:06;;;;;;;22.17;18.73;;;;;;;;;;5015920;28;20229;-74
2022/03/20 05:39:35;;;;;;;21.33;17.47;;;;;;;;;;5011250;28;20651;-74
2022/03/20 05:42:03;;;;;;;22.37;18.57;;;;;;;;;;5033491;28;20232;-74
2022/03/20 05:44:31;;;;;;;23.30;18.10;;;;;;;;;;5027066;28;20253;-74
2022/03/20 05:47:01;;;;;;;21.20;16.43;;;;;;;;;;5013910;28;20246;-74
2022/03/20 05:49:28;;;;;;;21.90;18.33;;;;;;;;;;5029733;28;20225;-74
2022/03/20 05:51:55;;;;;;;21.43;17.63;;;;;;;;;;5026292;28;20230;-74
2022/03/20 05:54:23;;;;;;;22.50;18.37;;;;;;;;;;5016632;28;20688;-74
2022/03/20 05:59:37;;;;;;;24.43;18.13;;;;;;;;;;5014622;28;20305;-74
2022/03/20 06:02:05;;;;;;;21.93;17.27;;;;;;;;;;5015115;28;20234;-74
2022/03/20 06:04:33;;;;;;;19.60;17.13;;;;;;;;;;5031897;28;20292;-74
2022/03/20 06:07:00;;;;;;;22.20;18.57;;;;;;;;;;5030375;28;20302;-74
2022/03/20 06:09:27;;;;;;;20.37;17.80;;;;;;;;;;5014820;28;20293;-74
2022/03/20 06:11:56;;;;;;;22.37;18.57;;;;;;;;;;5024317;28;20206;-74
2022/03/20 06:14:24;;;;;;;21.43;18.30;;;;;;;;;;5033384;28;20210;-74
2022/03/20 06:16:51;;;;;;;20.13;17.10;;;;;;;;;;5014552;28;20209;-74
2022/03/20 06:19:19;;;;;;;23.07;18.53;;;;;;;;;;5014681;28;20206;-74
2022/03/20 06:21:47;;;;;;;23.10;18.10;;;;;;;;;;5014600;28;20238;-74
2022/03/20 06:24:14;;;;;;;22.20;18.90;;;;;;;;;;5014955;28;20253;-74
2022/03/20 06:26:41;;;;;;;21.10;17.80;;;;;;;;;;5029320;28;20218;-76
2022/03/20 06:29:10;;;;;;;21.07;18.53;;;;;;;;;;5014343;28;20309;-74
2022/03/20 06:31:37;;;;;;;21.73;19.43;;;;;;;;;;5014491;28;20215;-75
2022/03/20 06:34:05;;;;;;;21.03;17.77;;;;;;;;;;5029818;28;20248;-75
2022/03/20 06:36:33;;;;;;;22.37;18.23;;;;;;;;;;5032760;28;20211;-74
2022/03/20 06:39:00;;;;;;;22.27;19.37;;;;;;;;;;5032563;28;20238;-75
2022/03/20 06:41:27;;;;;;;21.20;18.70;;;;;;;;;;5032872;28;20289;-75
2022/03/20 06:43:55;;;;;;;22.23;19.73;;;;;;;;;;5022716;28;20211;-75
2022/03/20 06:46:27;;;;;;;23.27;19.93;;;;;;;;;;5022819;28;20726;-75
2022/03/20 06:48:54;;;;;;;22.47;19.47;;;;;;;;;;5032805;28;20244;-75
2022/03/20 06:51:22;;;;;;;23.00;18.90;;;;;;;;;;5033379;28;20297;-74
2022/03/20 06:53:49;;;;;;;21.90;18.90;;;;;;;;;;5030861;28;20221;-74
2022/03/20 06:56:17;;;;;;;23.10;20.33;;;;;;;;;;5016349;28;20293;-75
2022/03/20 06:58:44;;;;;;;21.00;18.70;;;;;;;;;;5026480;28;20225;-75
2022/03/20 07:01:11;;;;;;;25.03;20.10;;;;;;;;;;5016210;28;20202;-74
2022/03/20 07:03:40;;;;;;;22.67;19.20;;;;;;;;;;5030400;28;20773;-75
2022/03/20 07:06:07;;;;;;;19.90;17.53;;;;;;;;;;5032978;28;20225;-75
2022/03/20 07:08:34;;;;;;;22.10;18.90;;;;;;;;;;5018102;28;20229;-75
2022/03/20 07:11:02;;;;;;;22.63;19.53;;;;;;;;;;5013067;28;20245;-75
2022/03/20 07:16:15;;;;;;;27.40;21.47;;;;;;;;;;5013771;28;20202;-75
2022/03/20 07:18:45;;;;;;;22.90;20.13;;;;;;;;;;5010207;28;20233;-75
2022/03/20 07:21:14;;;;;;;23.63;20.93;;;;;;;;;;5013353;28;20198;-76
2022/03/20 07:23:41;;;;;;;27.67;21.03;;;;;;;;;;5023671;28;20296;-82
2022/03/20 07:31:38;;;;;;;24.00;20.07;;;;;;;;;;5013524;28;20204;-76
2022/03/20 07:34:07;;;;;;;23.70;20.43;;;;;;;;;;5025179;28;20217;-77
2022/03/20 07:36:34;;;;;;;26.10;22.03;;;;;;;;;;5029824;28;20257;-77
2022/03/20 07:39:05;;;;;;;25.67;21.80;;;;;;;;;;5094626;22;20263;-80
2022/03/20 07:41:35;;;;;;;26.10;21.80;;;;;;;;;;5080083;28;20192;-81
2022/03/20 07:44:04;;;;;;;24.97;21.67;;;;;;;;;;5083038;28;20239;-81
2022/03/20 07:46:35;;;;;;;24.60;21.20;;;;;;;;;;5075572;28;20248;-81
2022/03/20 07:49:07;;;;;;;23.70;21.10;;;;;;;;;;5075468;28;20267;-81
2022/03/20 07:51:35;;;;;;;25.00;21.67;;;;;;;;;;5057290;28;20217;-81
2022/03/20 07:54:02;;;;;;;23.30;20.80;;;;;;;;;;5061476;28;20207;-81
2022/03/20 07:56:34;;;;;;;24.57;21.40;;;;;;;;;;5057511;28;20287;-80
2022/03/20 07:59:01;;;;;;;24.37;20.70;;;;;;;;;;5042851;28;20224;-80
2022/03/20 08:01:29;;;;;;;22.30;19.90;;;;;;;;;;5038307;28;20205;-80
2022/03/20 08:03:58;;;;;;;21.73;19.53;;;;;;;;;;5041097;28;20229;-81
2022/03/20 08:06:29;;;;;;;22.50;20.00;;;;;;;;;;5044348;28;20221;-81
2022/03/20 08:08:59;;;;;;;22.37;20.03;;;;;;;;;;5044415;28;20695;-80
2022/03/20 08:11:30;;;;;;;26.70;22.47;;;;;;;;;;5051833;28;20209;-80
2022/03/20 08:14:14;;;;;;;23.83;21.07;;;;;;;;;;5045554;28;20638;-81
2022/03/20 08:16:43;;;;;;;24.47;21.87;;;;;;;;;;5055118;28;20209;-80
2022/03/20 08:19:12;;;;;;;24.90;22.20;;;;;;;;;;5041489;28;20225;-80
2022/03/20 08:21:40;;;;;;;25.00;21.80;;;;;;;;;;5039488;28;20229;-80
2022/03/20 08:24:17;;;;;;;24.80;21.67;;;;;;;;;;5035503;28;20214;-81
2022/03/20 08:26:44;;;;;;;22.47;19.97;;;;;;;;;;5044803;28;20224;-80
2022/03/20 08:29:13;;;;;;;23.27;20.10;;;;;;;;;;5044363;28;20232;-80
2022/03/20 08:31:44;;;;;;;23.37;20.50;;;;;;;;;;5038839;28;20214;-80
2022/03/20 08:34:13;;;;;;;23.77;20.00;;;;;;;;;;5034784;28;20252;-81
2022/03/20 08:36:42;;;;;;;22.50;20.10;;;;;;;;;;5040988;28;20208;-80
2022/03/20 08:39:09;;;;;;;24.27;21.67;;;;;;;;;;5052649;28;20272;-80
2022/03/20 08:41:36;;;;;;;23.97;20.73;;;;;;;;;;5046408;28;20244;-80
2022/03/20 08:44:08;;;;;;;21.77;19.47;;;;;;;;;;5044204;28;20206;-81
2022/03/20 08:46:35;;;;;;;25.63;21.70;;;;;;;;;;5038443;28;20222;-84
2022/03/20 08:49:15;;;;;;;21.67;19.40;;;;;;;;;;5042872;28;20271;-80
2022/03/20 08:51:54;;;;;;;22.00;19.70;;;;;;;;;;5045888;28;20213;-80
2022/03/20 08:54:25;;;;;;;24.60;21.17;;;;;;;;;;5054427;28;20266;-80
2022/03/20 08:56:52;;;;;;;21.23;18.83;;;;;;;;;;5046166;28;20193;-80
2022/03/20 08:59:21;;;;;;;27.70;21.40;;;;;;;;;;5038217;28;20229;-80
2022/03/20 09:01:49;;;;;;;25.30;20.00;;;;;;;;;;5047822;28;20210;-80
2022/03/20 09:04:18;;;;;;;23.77;21.27;;;;;;;;;;5048094;28;20209;-80
2022/03/20 09:09:32;;;;;;;22.87;19.97;;;;;;;;;;5048026;28;20233;-80
2022/03/20 09:12:01;;;;;;;23.93;19.80;;;;;;;;;;5052196;28;20225;-80
2022/03/20 09:26:14;;;;;;;21.87;19.57;;;;;;;;;;5039371;28;20202;-81
2022/03/20 09:28:45;;;;;;;21.60;19.30;;;;;;;;;;5047555;28;20256;-80
2022/03/20 09:31:15;;;;;;;21.07;18.87;;;;;;;;;;5036943;28;20210;-80
2022/03/20 09:33:44;;;;;;;21.47;19.17;;;;;;;;;;5045012;28;20197;-80
2022/03/20 09:36:14;;;;;;;21.27;19.03;;;;;;;;;;5039433;28;20679;-80
2022/03/20 09:38:47;;;;;;;22.40;19.63;;;;;;;;;;5039742;28;20240;-80
2022/03/20 09:41:24;;;;;;;;;;;;;;;;;;;;;
2022/03/20 09:43:56;;;;;;;22.20;19.40;;;;;;;;;;5048598;28;20205;-80
2022/03/20 09:46:34;;;;;;;22.50;20.20;;;;;;;;;;5037047;28;20214;-80
2022/03/20 09:49:02;;;;;;;20.40;18.13;;;;;;;;;;5041175;28;20218;-80
2022/03/20 09:51:44;;;;;;;19.40;16.73;;;;;;;;;;5046229;28;20256;-81
2022/03/20 09:54:14;;;;;;;20.07;16.90;;;;;;;;;;5055671;28;20231;-81
2022/03/20 09:56:55;;;;;;;20.02;17.35;;;;;;;;;;5056734;28;20299;-81
2022/03/20 09:59:23;;;;;;;22.35;17.65;;;;;;;;;;5039304;28;20257;-81
2022/03/20 10:01:54;;;;;;;19.88;17.13;;;;;;;;;;5053561;28;20209;-81
2022/03/20 10:04:21;;;;;;;20.20;17.67;;;;;;;;;;5052165;28;20209;-81
2022/03/20 10:06:49;;;;;;;19.83;17.25;;;;;;;;;;5053954;28;20316;-84
2022/03/20 10:09:36;;;;;;;20.67;18.48;;;;;;;;;;5054928;28;20221;-81
2022/03/20 10:15:02;;;;;;;20.02;18.02;;;;;;;;;;5040699;28;20206;-81
2022/03/20 10:17:33;;;;;;;21.63;17.92;;;;;;;;;;5044061;28;20236;-78
2022/03/20 10:20:13;;;;;;;22.17;17.73;;;;;;;;;;5047932;28;20224;-79
2022/03/20 10:22:41;;;;;;;20.88;18.52;;;;;;;;;;5051021;28;20220;-79
2022/03/20 10:25:13;;;;;;;19.10;17.20;;;;;;;;;;5049349;28;20251;-79
2022/03/20 10:27:41;;;;;;;19.73;17.73;;;;;;;;;;5044941;28;20226;-78
2022/03/20 10:30:10;;;;;;;20.00;17.83;;;;;;;;;;5051389;28;20201;-79
2022/03/20 10:32:48;;;;;;;20.10;17.70;;;;;;;;;;5047181;28;20206;-80
2022/03/20 10:35:17;;;;;;;19.17;16.27;;;;;;;;;;5046754;28;20197;-80
2022/03/20 10:37:50;;;;;;;18.52;16.58;;;;;;;;;;5047125;28;20232;-81
2022/03/20 10:40:20;;;;;;;17.88;16.05;;;;;;;;;;5040513;28;20201;-81
2022/03/20 10:43:03;;;;;;;19.85;17.70;;;;;;;;;;5052232;28;20202;-81
2022/03/20 11:01:20;;;;;;;18.60;16.77;;;;;;;;;;4989349;28;20215;-80
2022/03/20 11:16:10;;;;;;;16.75;14.88;;;;;;;;;;4953624;28;20202;-79
2022/03/20 13:38:05;;;;;;;15.85;14.18;;;;;;;;;;2839212;22;20514;-80
2022/03/20 13:40:33;;;;;;;18.75;13.93;;;;;;;;;;5072355;28;20208;-80
2022/03/20 13:43:01;;;;;;;16.55;14.73;;;;;;;;;;5072344;28;20238;-81
2022/03/20 13:45:37;;;;;;;18.83;14.32;;;;;;;;;;5072777;28;20193;-81
2022/03/20 13:48:05;;;;;;;18.17;14.35;;;;;;;;;;5067198;28;20224;-81
2022/03/20 13:50:37;;;;;;;16.63;13.52;;;;;;;;;;5064551;28;20201;-79
2022/03/20 13:53:05;;;;;;;17.65;12.85;;;;;;;;;;5068367;28;20263;-79
2022/03/20 13:55:34;;;;;;;14.05;12.57;;;;;;;;;;5061985;28;20264;-80
2022/03/20 13:58:05;;;;;;;14.60;12.77;;;;;;;;;;5062462;28;20209;-81
2022/03/20 14:00:38;;;;;;;13.95;12.35;;;;;;;;;;5061810;28;20251;-80
2022/03/20 14:03:07;;;;;;;13.45;11.45;;;;;;;;;;5064610;28;20247;-81
2022/03/20 14:05:35;;;;;;;16.17;12.57;;;;;;;;;;5065382;28;20261;-78
2022/03/20 14:08:08;;;;;;;12.63;11.23;;;;;;;;;;5059553;28;20633;-81
2022/03/20 14:10:45;;;;;;;13.75;12.35;;;;;;;;;;5062905;28;20205;-81
2022/03/20 14:13:19;;;;;;;13.07;11.65;;;;;;;;;;5061395;28;20288;-81
2022/03/20 14:16:06;;;;;;;13.55;11.30;;;;;;;;;;5064709;28;20200;-80
2022/03/20 14:18:42;;;;;;;14.40;12.90;;;;;;;;;;5062986;28;20224;-83
2022/03/20 14:21:10;;;;;;;15.50;13.30;;;;;;;;;;5071321;28;20197;-82
2022/03/20 14:23:38;;;;;;;14.43;12.90;;;;;;;;;;5070359;28;20208;-83
2022/03/20 14:26:21;;;;;;;15.80;12.80;;;;;;;;;;5072363;28;20319;-82
2022/03/20 14:29:00;;;;;;;13.95;12.10;;;;;;;;;;5069446;28;20217;-81
2022/03/20 14:39:43;;;;;;;15.27;13.32;;;;;;;;;;5061857;28;20291;-80
2022/03/20 14:42:23;;;;;;;14.65;13.13;;;;;;;;;;5064324;28;20189;-79
2022/03/20 14:44:50;;;;;;;14.10;12.65;;;;;;;;;;5067454;28;20218;-79
2022/03/20 14:47:19;;;;;;;15.30;13.80;;;;;;;;;;5063272;28;20197;-79
2022/03/20 14:49:50;;;;;;;16.55;14.85;;;;;;;;;;5061089;28;20244;-80
2022/03/20 14:52:19;;;;;;;14.95;13.45;;;;;;;;;;5056745;28;20201;-79
2022/03/20 14:54:46;;;;;;;14.13;12.82;;;;;;;;;;5062362;28;20204;-80
2022/03/20 14:57:15;;;;;;;15.23;13.82;;;;;;;;;;5070759;28;20288;-80
2022/03/20 14:59:44;;;;;;;17.38;15.57;;;;;;;;;;5066308;28;20224;-81
2022/03/20 15:02:15;;;;;;;14.88;13.32;;;;;;;;;;5067316;28;20204;-80
2022/03/20 15:04:42;;;;;;;17.15;15.55;;;;;;;;;;5066637;28;20201;-79
2022/03/20 15:07:10;;;;;;;15.73;14.20;;;;;;;;;;5071079;28;20323;-80
2022/03/20 15:12:25;;;;;;;15.23;13.77;;;;;;;;;;5060722;28;20235;-79
2022/03/20 15:14:53;;;;;;;15.43;13.82;;;;;;;;;;5065451;28;20200;-79
2022/03/20 15:17:20;;;;;;;15.48;13.95;;;;;;;;;;5063347;28;20251;-81
2022/03/20 15:19:48;;;;;;;16.05;14.45;;;;;;;;;;5064876;28;20279;-79
2022/03/20 15:22:15;;;;;;;16.33;14.73;;;;;;;;;;5065196;28;20208;-78
2022/03/20 15:24:42;;;;;;;17.17;15.52;;;;;;;;;;5058355;28;20296;-79
2022/03/20 15:27:10;;;;;;;16.08;14.60;;;;;;;;;;5063698;28;20240;-79
2022/03/20 15:29:38;;;;;;;16.20;14.60;;;;;;;;;;5059311;28;20240;-79
2022/03/20 15:32:06;;;;;;;15.15;13.65;;;;;;;;;;5061319;28;20212;-78
2022/03/20 15:34:35;;;;;;;15.20;13.70;;;;;;;;;;5061145;28;20215;-79
2022/03/20 15:37:02;;;;;;;16.27;14.68;;;;;;;;;;5057817;28;20201;-77
2022/03/20 15:39:30;;;;;;;16.30;14.65;;;;;;;;;;5060292;28;20230;-78
2022/03/20 15:41:57;;;;;;;15.82;14.23;;;;;;;;;;5062643;28;20201;-78
2022/03/20 15:44:25;;;;;;;16.48;14.90;;;;;;;;;;5059460;28;20204;-79
2022/03/20 15:46:54;;;;;;;15.32;13.98;;;;;;;;;;5064224;28;20204;-80
2022/03/20 15:49:21;;;;;;;16.23;14.63;;;;;;;;;;5071147;28;20229;-78
2022/03/20 15:51:48;;;;;;;15.32;13.82;;;;;;;;;;5060532;28;20210;-79
2022/03/20 15:54:16;;;;;;;15.05;13.63;;;;;;;;;;5064622;28;20205;-79
2022/03/20 15:56:44;;;;;;;15.48;14.02;;;;;;;;;;5056702;28;20197;-78
2022/03/20 15:59:11;;;;;;;16.63;14.95;;;;;;;;;;5051725;28;20314;-79
2022/03/20 16:01:38;;;;;;;15.48;13.98;;;;;;;;;;5051608;28;20296;-77
2022/03/20 16:04:07;;;;;;;15.40;13.90;;;;;;;;;;5052077;28;20236;-79
2022/03/20 16:06:34;;;;;;;15.25;13.75;;;;;;;;;;5051320;28;20212;-79
2022/03/20 16:09:01;;;;;;;16.08;14.48;;;;;;;;;;5058022;28;20227;-78
2022/03/20 16:11:29;;;;;;;16.15;14.50;;;;;;;;;;5058508;28;20204;-79
2022/03/20 16:13:56;;;;;;;15.80;14.05;;;;;;;;;;5065845;28;20209;-78
2022/03/20 16:16:23;;;;;;;15.60;14.18;;;;;;;;;;5067957;28;20224;-78
2022/03/20 16:18:50;;;;;;;14.48;13.18;;;;;;;;;;5062574;28;20221;-79
2022/03/20 16:21:19;;;;;;;16.45;14.65;;;;;;;;;;5063823;28;20196;-79
2022/03/20 16:29:16;;;;;;;17.67;15.15;;;;;;;;;;5064414;28;20227;-80
2022/03/20 16:31:46;;;;;;;16.45;14.68;;;;;;;;;;5058852;28;20208;-75
2022/03/20 16:34:13;;;;;;;17.10;15.30;;;;;;;;;;5065670;28;20204;-79
2022/03/20 16:36:42;;;;;;;15.77;14.10;;;;;;;;;;5060450;28;20263;-81
2022/03/20 16:39:09;;;;;;;17.38;15.60;;;;;;;;;;5065951;28;20248;-79
2022/03/20 16:41:37;;;;;;;16.73;15.00;;;;;;;;;;5064087;28;20250;-79
2022/03/20 16:44:04;;;;;;;17.55;15.88;;;;;;;;;;5063458;28;20211;-78
2022/03/20 16:46:31;;;;;;;18.40;16.50;;;;;;;;;;5065373;28;20224;-81
2022/03/20 16:48:59;;;;;;;17.85;16.05;;;;;;;;;;5062016;28;20224;-79
2022/03/20 16:51:26;;;;;;;18.08;16.17;;;;;;;;;;5059697;28;20216;-79
2022/03/20 16:53:59;;;;;;;17.92;15.60;;;;;;;;;;5073543;28;20198;-83
2022/03/20 16:56:27;;;;;;;18.85;15.85;;;;;;;;;;5078451;28;20307;-80
2022/03/20 16:58:56;;;;;;;17.10;15.30;;;;;;;;;;5073695;28;20729;-80
2022/03/20 17:01:24;;;;;;;17.38;15.63;;;;;;;;;;5064749;28;20196;-79
2022/03/20 17:03:52;;;;;;;19.20;16.13;;;;;;;;;;5056780;28;20233;-84
2022/03/20 17:06:20;;;;;;;17.45;15.57;;;;;;;;;;5069332;28;20220;-79
2022/03/20 17:08:55;;;;;;;17.27;14.65;;;;;;;;;;5066484;28;20231;-81
2022/03/20 17:11:24;;;;;;;19.60;15.57;;;;;;;;;;5070307;28;20200;-78
2022/03/20 17:13:54;;;;;;;17.40;15.05;;;;;;;;;;5066512;28;20196;-79
2022/03/20 17:16:22;;;;;;;20.27;15.52;;;;;;;;;;5070900;28;20224;-79
2022/03/20 17:18:55;;;;;;;17.73;14.70;;;;;;;;;;5070345;28;20282;-78
2022/03/20 17:21:22;;;;;;;16.73;14.20;;;;;;;;;;5069087;28;20205;-77
2022/03/20 17:23:53;;;;;;;15.43;13.43;;;;;;;;;;5066028;28;20204;-79
2022/03/20 17:26:20;;;;;;;15.30;13.53;;;;;;;;;;5065319;28;20250;-79
2022/03/20 17:28:51;;;;;;;15.70;13.27;;;;;;;;;;5057587;28;20228;-78
2022/03/20 17:31:20;;;;;;;17.33;13.87;;;;;;;;;;5065864;28;20209;-79
2022/03/20 17:33:47;;;;;;;15.53;13.90;;;;;;;;;;5060101;28;20248;-78
2022/03/20 17:36:14;;;;;;;18.53;15.17;;;;;;;;;;5056038;28;20729;-79
2022/03/20 17:38:42;;;;;;;17.47;14.10;;;;;;;;;;5060742;28;20229;-80
2022/03/20 17:41:11;;;;;;;14.97;13.17;;;;;;;;;;5055410;28;20311;-79
2022/03/20 17:43:39;;;;;;;13.87;12.33;;;;;;;;;;5054654;28;20201;-78
2022/03/20 17:46:10;;;;;;;15.90;12.43;;;;;;;;;;5054440;28;20209;-79
2022/03/20 17:48:37;;;;;;;14.33;12.83;;;;;;;;;;5072204;28;20228;-78
2022/03/20 17:51:07;;;;;;;14.47;12.40;;;;;;;;;;5073541;28;20208;-78
2022/03/20 17:56:17;;;;;;;15.70;13.20;;;;;;;;;;5051048;28;20205;-79
2022/03/20 17:58:44;;;;;;;16.40;13.03;;;;;;;;;;5053722;28;20718;-79
2022/03/20 18:01:23;;;;;;;14.27;12.37;;;;;;;;;;5061410;28;20329;-78
2022/03/20 18:09:19;;;;;;;14.73;12.23;;;;;;;;;;5073457;28;20342;-78
2022/03/20 18:11:48;;;;;;;14.03;11.90;;;;;;;;;;5060768;28;20228;-79
2022/03/20 18:14:15;;;;;;;13.90;12.13;;;;;;;;;;5054392;28;20288;-78
2022/03/20 18:16:43;;;;;;;13.70;12.20;;;;;;;;;;5059829;28;20299;-80
2022/03/20 18:19:14;;;;;;;14.47;12.40;;;;;;;;;;5073311;28;20282;-79
2022/03/20 18:21:41;;;;;;;16.17;12.83;;;;;;;;;;5067334;28;20209;-78
2022/03/20 18:24:08;;;;;;;15.33;13.03;;;;;;;;;;5068536;28;20267;-79
2022/03/20 18:26:36;;;;;;;14.03;12.60;;;;;;;;;;5053684;28;20204;-78
2022/03/20 18:29:03;;;;;;;16.63;13.10;;;;;;;;;;5053826;28;20303;-79
2022/03/20 18:31:30;;;;;;;22.37;18.57;;;;;;;;;;5054194;28;20201;-78
2022/03/20 18:33:59;;;;;;;15.63;12.33;;;;;;;;;;5054388;28;20278;-79
2022/03/20 18:36:26;;;;;;;15.20;13.10;;;;;;;;;;5053966;28;20213;-78
2022/03/20 18:38:54;;;;;;;15.07;13.10;;;;;;;;;;5053617;28;20236;-79